This is the latest recevied weather packets stored in our database for station/object W8MRL. If no packets are shown the sender has not sent any weather packets the latest 10 day(s).
| Time | Temp. | Humidity | Pressure | Rain* | Wind** | Luminosity | Snow |
|---|---|---|---|---|---|---|---|
| 1777745726 | 11.11° C | 53% | 1021.9 hPa | 0 mm | - | - | - |
| 1777744810 | 11.67° C | 53% | 1022.1 hPa | 0 mm | - | - | - |
| 1777743910 | 11.67° C | 55% | 1022.1 hPa | 0 mm | - | - | - |
| 1777743009 | 11.67° C | 53% | 1022.1 hPa | 0 mm | - | - | - |
| 1777742108 | 11.67° C | 54% | 1022.2 hPa | 0 mm | - | - | - |
| 1777741205 | 11.11° C | 51% | 1022.6 hPa | 0 mm | - | - | - |
| 1777740308 | 11.11° C | 55% | 1022.6 hPa | 0 mm | - | - | - |
| 1777739408 | 10.56° C | 57% | 1022.7 hPa | 0 mm | - | - | - |
| 1777738502 | 10.56° C | 55% | 1022.8 hPa | 0 mm | - | - | - |
| 1777737661 | 10.56° C | 58% | 1022.8 hPa | 0 mm | - | - | - |
| 1777736758 | 10° C | 54% | 1022.9 hPa | 0 mm | - | - | - |
| 1777735863 | 10° C | 54% | 1022.8 hPa | 0 mm | - | - | - |
| 1777734976 | 10° C | 56% | 1022.8 hPa | 0 mm | - | - | - |
| 1777734061 | 9.44° C | 60% | 1022.8 hPa | 0 mm | - | - | - |
| 1777733152 | 9.44° C | 58% | 1022.7 hPa | 0 mm | - | - | - |
| 1777732250 | 9.44° C | 57% | 1022.8 hPa | 0 mm | - | - | - |
| 1777731348 | 8.89° C | 58% | 1022.8 hPa | 0 mm | - | - | - |
| 1777730445 | 8.89° C | 61% | 1022.7 hPa | 0 mm | - | - | - |
| 1777729542 | 8.33° C | 62% | 1022.7 hPa | 0 mm | - | - | - |
| 1777728639 | 7.78° C | 62% | 1022.8 hPa | 0 mm | - | - | - |
| 1777727742 | 7.22° C | 62% | 1022.8 hPa | 0 mm | - | - | - |
| 1777726830 | 6.11° C | 66% | 1022.7 hPa | 0 mm | - | - | - |
| 1777725928 | 5.56° C | 69% | 1022.5 hPa | 0 mm | - | - | - |
| 1777725034 | 5° C | 73% | 1022.6 hPa | 0 mm | - | - | - |
| 1777724121 | 3.89° C | 81% | 1022.3 hPa | 0 mm | - | - | - |
* Rain latest hour (hover to see other rain measurements)
** Current wind speed in m/s (hover to see current wind gust speed)